sensor_id;sensor_type;location;lat;lon;timestamp;temperature;humidity
25332;DHT22;13284;52.748;13.452;2023-04-29T00:02:03;12.50;99.90
25332;DHT22;13284;52.748;13.452;2023-04-29T00:04:29;12.60;99.90
25332;DHT22;13284;52.748;13.452;2023-04-29T00:06:54;12.50;99.90
25332;DHT22;13284;52.748;13.452;2023-04-29T00:09:20;12.50;99.90
25332;DHT22;13284;52.748;13.452;2023-04-29T00:11:46;12.50;99.90
25332;DHT22;13284;52.748;13.452;2023-04-29T00:14:12;12.40;99.90
25332;DHT22;13284;52.748;13.452;2023-04-29T00:16:37;12.40;99.90
25332;DHT22;13284;52.748;13.452;2023-04-29T00:19:03;12.50;99.90
25332;DHT22;13284;52.748;13.452;2023-04-29T00:21:29;12.40;99.90
25332;DHT22;13284;52.748;13.452;2023-04-29T00:23:56;12.50;99.90
25332;DHT22;13284;52.748;13.452;2023-04-29T00:26:22;12.50;99.90
25332;DHT22;13284;52.748;13.452;2023-04-29T00:28:47;12.40;99.90
25332;DHT22;13284;52.748;13.452;2023-04-29T00:31:13;12.40;99.90
25332;DHT22;13284;52.748;13.452;2023-04-29T00:33:41;12.50;99.90
25332;DHT22;13284;52.748;13.452;2023-04-29T00:36:07;12.40;99.90
25332;DHT22;13284;52.748;13.452;2023-04-29T00:38:32;12.50;99.90
25332;DHT22;13284;52.748;13.452;2023-04-29T00:40:58;12.40;99.90
25332;DHT22;13284;52.748;13.452;2023-04-29T00:43:24;12.40;99.90
25332;DHT22;13284;52.748;13.452;2023-04-29T00:45:49;12.30;99.90
25332;DHT22;13284;52.748;13.452;2023-04-29T00:48:15;12.30;99.90
25332;DHT22;13284;52.748;13.452;2023-04-29T00:50:41;12.30;99.90
25332;DHT22;13284;52.748;13.452;2023-04-29T00:53:10;12.30;99.90
25332;DHT22;13284;52.748;13.452;2023-04-29T00:55:42;12.30;99.90
25332;DHT22;13284;52.748;13.452;2023-04-29T00:58:11;12.30;99.90
25332;DHT22;13284;52.748;13.452;2023-04-29T01:00:37;12.30;99.90
25332;DHT22;13284;52.748;13.452;2023-04-29T01:03:04;12.20;99.90
25332;DHT22;13284;52.748;13.452;2023-04-29T01:05:29;12.30;99.90
25332;DHT22;13284;52.748;13.452;2023-04-29T01:08:22;12.30;99.90
25332;DHT22;13284;52.748;13.452;2023-04-29T01:10:57;12.20;99.90
25332;DHT22;13284;52.748;13.452;2023-04-29T01:13:46;12.20;99.90
25332;DHT22;13284;52.748;13.452;2023-04-29T01:16:22;12.20;99.90
25332;DHT22;13284;52.748;13.452;2023-04-29T01:18:53;12.10;99.90
25332;DHT22;13284;52.748;13.452;2023-04-29T01:21:19;12.10;99.90
25332;DHT22;13284;52.748;13.452;2023-04-29T01:23:45;12.10;99.90
25332;DHT22;13284;52.748;13.452;2023-04-29T01:26:10;12.10;99.90
25332;DHT22;13284;52.748;13.452;2023-04-29T01:31:24;12.20;99.90
25332;DHT22;13284;52.748;13.452;2023-04-29T01:33:58;12.20;99.90
25332;DHT22;13284;52.748;13.452;2023-04-29T01:36:42;12.10;99.90
25332;DHT22;13284;52.748;13.452;2023-04-29T01:39:15;12.10;99.90
25332;DHT22;13284;52.748;13.452;2023-04-29T01:41:56;12.10;99.90
25332;DHT22;13284;52.748;13.452;2023-04-29T01:44:28;12.00;99.90
25332;DHT22;13284;52.748;13.452;2023-04-29T01:46:56;11.90;99.90
25332;DHT22;13284;52.748;13.452;2023-04-29T01:49:26;12.00;99.90
25332;DHT22;13284;52.748;13.452;2023-04-29T01:51:53;11.90;99.90
25332;DHT22;13284;52.748;13.452;2023-04-29T01:54:19;11.80;99.90
25332;DHT22;13284;52.748;13.452;2023-04-29T01:56:45;11.80;99.90
25332;DHT22;13284;52.748;13.452;2023-04-29T01:59:10;11.80;99.90
25332;DHT22;13284;52.748;13.452;2023-04-29T02:01:42;11.80;99.90
25332;DHT22;13284;52.748;13.452;2023-04-29T02:04:08;11.80;99.90
25332;DHT22;13284;52.748;13.452;2023-04-29T02:06:33;11.80;99.90
25332;DHT22;13284;52.748;13.452;2023-04-29T02:08:58;11.70;99.90
25332;DHT22;13284;52.748;13.452;2023-04-29T02:11:24;11.70;99.90
25332;DHT22;13284;52.748;13.452;2023-04-29T02:13:50;11.70;99.90
25332;DHT22;13284;52.748;13.452;2023-04-29T02:16:16;11.70;99.90
25332;DHT22;13284;52.748;13.452;2023-04-29T02:18:42;11.60;99.90
25332;DHT22;13284;52.748;13.452;2023-04-29T02:21:07;11.60;99.90
25332;DHT22;13284;52.748;13.452;2023-04-29T02:23:36;11.60;99.90
25332;DHT22;13284;52.748;13.452;2023-04-29T02:26:02;11.50;99.90
25332;DHT22;13284;52.748;13.452;2023-04-29T02:28:32;11.60;99.90
25332;DHT22;13284;52.748;13.452;2023-04-29T02:30:59;11.50;99.90
25332;DHT22;13284;52.748;13.452;2023-04-29T02:33:24;11.50;99.90
25332;DHT22;13284;52.748;13.452;2023-04-29T02:35:50;11.50;99.90
25332;DHT22;13284;52.748;13.452;2023-04-29T02:38:15;11.50;99.90
25332;DHT22;13284;52.748;13.452;2023-04-29T02:40:41;11.60;99.90
25332;DHT22;13284;52.748;13.452;2023-04-29T02:43:08;11.50;99.90
25332;DHT22;13284;52.748;13.452;2023-04-29T02:45:34;11.50;99.90
25332;DHT22;13284;52.748;13.452;2023-04-29T02:47:59;11.50;99.90
25332;DHT22;13284;52.748;13.452;2023-04-29T02:50:25;11.60;99.90
25332;DHT22;13284;52.748;13.452;2023-04-29T02:52:51;11.60;99.90
25332;DHT22;13284;52.748;13.452;2023-04-29T02:55:16;11.60;99.90
25332;DHT22;13284;52.748;13.452;2023-04-29T02:57:43;11.50;99.90
25332;DHT22;13284;52.748;13.452;2023-04-29T03:00:09;11.50;99.90
25332;DHT22;13284;52.748;13.452;2023-04-29T03:02:35;11.60;99.90
25332;DHT22;13284;52.748;13.452;2023-04-29T03:05:02;11.60;99.90
25332;DHT22;13284;52.748;13.452;2023-04-29T03:07:27;11.60;99.90
25332;DHT22;13284;52.748;13.452;2023-04-29T03:09:54;11.60;99.90
25332;DHT22;13284;52.748;13.452;2023-04-29T03:12:20;11.60;99.90
25332;DHT22;13284;52.748;13.452;2023-04-29T03:14:46;11.60;99.90
25332;DHT22;13284;52.748;13.452;2023-04-29T03:17:11;11.60;99.90
25332;DHT22;13284;52.748;13.452;2023-04-29T03:19:37;11.60;99.90
25332;DHT22;13284;52.748;13.452;2023-04-29T03:22:02;11.60;99.90
25332;DHT22;13284;52.748;13.452;2023-04-29T03:24:28;11.60;99.90
25332;DHT22;13284;52.748;13.452;2023-04-29T03:26:53;11.60;99.90
25332;DHT22;13284;52.748;13.452;2023-04-29T03:29:19;11.60;99.90
25332;DHT22;13284;52.748;13.452;2023-04-29T03:31:45;11.60;99.90
25332;DHT22;13284;52.748;13.452;2023-04-29T03:34:11;11.50;99.90
25332;DHT22;13284;52.748;13.452;2023-04-29T03:36:38;11.50;99.90
25332;DHT22;13284;52.748;13.452;2023-04-29T03:39:04;11.60;99.90
25332;DHT22;13284;52.748;13.452;2023-04-29T03:41:29;11.50;99.90
25332;DHT22;13284;52.748;13.452;2023-04-29T03:43:55;11.50;99.90
25332;DHT22;13284;52.748;13.452;2023-04-29T03:46:25;11.50;99.90
25332;DHT22;13284;52.748;13.452;2023-04-29T03:48:51;11.50;99.90
25332;DHT22;13284;52.748;13.452;2023-04-29T03:51:16;11.50;99.90
25332;DHT22;13284;52.748;13.452;2023-04-29T03:53:42;11.40;99.90
25332;DHT22;13284;52.748;13.452;2023-04-29T03:56:08;11.30;99.90
25332;DHT22;13284;52.748;13.452;2023-04-29T03:58:33;11.30;99.90
25332;DHT22;13284;52.748;13.452;2023-04-29T04:00:59;11.40;99.90
25332;DHT22;13284;52.748;13.452;2023-04-29T04:03:25;11.50;99.90
25332;DHT22;13284;52.748;13.452;2023-04-29T04:05:52;11.40;99.90
25332;DHT22;13284;52.748;13.452;2023-04-29T04:08:17;11.40;99.90
25332;DHT22;13284;52.748;13.452;2023-04-29T04:10:43;11.50;99.90
25332;DHT22;13284;52.748;13.452;2023-04-29T04:13:09;11.50;99.90
25332;DHT22;13284;52.748;13.452;2023-04-29T04:15:34;11.50;99.90
25332;DHT22;13284;52.748;13.452;2023-04-29T04:18:00;11.30;99.90
25332;DHT22;13284;52.748;13.452;2023-04-29T04:20:25;11.40;99.90
25332;DHT22;13284;52.748;13.452;2023-04-29T04:22:54;11.50;99.90
25332;DHT22;13284;52.748;13.452;2023-04-29T04:25:30;11.50;99.90
25332;DHT22;13284;52.748;13.452;2023-04-29T04:27:56;11.50;99.90
25332;DHT22;13284;52.748;13.452;2023-04-29T04:30:22;11.50;99.90
25332;DHT22;13284;52.748;13.452;2023-04-29T04:32:47;11.50;99.90
25332;DHT22;13284;52.748;13.452;2023-04-29T04:35:13;11.60;99.90
25332;DHT22;13284;52.748;13.452;2023-04-29T04:37:38;11.60;99.90
25332;DHT22;13284;52.748;13.452;2023-04-29T04:40:04;11.60;99.90
25332;DHT22;13284;52.748;13.452;2023-04-29T04:42:30;11.60;99.90
25332;DHT22;13284;52.748;13.452;2023-04-29T04:44:56;11.70;99.90
25332;DHT22;13284;52.748;13.452;2023-04-29T04:47:22;11.70;99.90
25332;DHT22;13284;52.748;13.452;2023-04-29T04:49:47;11.70;99.90
25332;DHT22;13284;52.748;13.452;2023-04-29T04:52:14;11.60;99.90
25332;DHT22;13284;52.748;13.452;2023-04-29T04:54:39;11.70;99.90
25332;DHT22;13284;52.748;13.452;2023-04-29T04:57:05;11.70;99.90
25332;DHT22;13284;52.748;13.452;2023-04-29T04:59:30;11.70;99.90
25332;DHT22;13284;52.748;13.452;2023-04-29T05:01:56;11.70;99.90
25332;DHT22;13284;52.748;13.452;2023-04-29T05:04:21;11.70;99.90
25332;DHT22;13284;52.748;13.452;2023-04-29T05:06:47;11.60;99.90
25332;DHT22;13284;52.748;13.452;2023-04-29T05:09:12;11.70;99.90
25332;DHT22;13284;52.748;13.452;2023-04-29T05:11:38;11.70;99.90
25332;DHT22;13284;52.748;13.452;2023-04-29T05:14:03;11.70;99.90
25332;DHT22;13284;52.748;13.452;2023-04-29T05:16:29;11.70;99.90
25332;DHT22;13284;52.748;13.452;2023-04-29T05:18:55;11.70;99.90
25332;DHT22;13284;52.748;13.452;2023-04-29T05:21:20;11.70;99.90
25332;DHT22;13284;52.748;13.452;2023-04-29T05:23:46;11.70;99.90
25332;DHT22;13284;52.748;13.452;2023-04-29T05:26:11;11.70;99.90
25332;DHT22;13284;52.748;13.452;2023-04-29T05:28:37;11.70;99.90
25332;DHT22;13284;52.748;13.452;2023-04-29T05:31:02;11.80;99.90
25332;DHT22;13284;52.748;13.452;2023-04-29T05:33:28;11.80;99.90
25332;DHT22;13284;52.748;13.452;2023-04-29T05:35:53;11.80;99.90
25332;DHT22;13284;52.748;13.452;2023-04-29T05:38:19;11.80;99.90
25332;DHT22;13284;52.748;13.452;2023-04-29T05:40:44;11.80;99.90
25332;DHT22;13284;52.748;13.452;2023-04-29T05:43:10;11.90;99.90
25332;DHT22;13284;52.748;13.452;2023-04-29T05:45:36;11.90;99.90
25332;DHT22;13284;52.748;13.452;2023-04-29T05:48:01;11.90;99.90
25332;DHT22;13284;52.748;13.452;2023-04-29T05:50:27;11.90;99.90
25332;DHT22;13284;52.748;13.452;2023-04-29T05:52:52;11.90;99.90
25332;DHT22;13284;52.748;13.452;2023-04-29T05:55:19;11.90;99.90
25332;DHT22;13284;52.748;13.452;2023-04-29T05:57:44;12.00;99.90
25332;DHT22;13284;52.748;13.452;2023-04-29T06:00:10;11.90;99.90
25332;DHT22;13284;52.748;13.452;2023-04-29T06:02:36;11.90;99.90
25332;DHT22;13284;52.748;13.452;2023-04-29T06:05:04;11.90;99.90
25332;DHT22;13284;52.748;13.452;2023-04-29T06:07:29;11.90;99.90
25332;DHT22;13284;52.748;13.452;2023-04-29T06:09:55;11.90;99.90
25332;DHT22;13284;52.748;13.452;2023-04-29T06:12:21;11.90;99.90
25332;DHT22;13284;52.748;13.452;2023-04-29T06:14:46;11.80;99.90
25332;DHT22;13284;52.748;13.452;2023-04-29T06:17:12;11.90;99.90
25332;DHT22;13284;52.748;13.452;2023-04-29T06:19:37;11.80;99.90
25332;DHT22;13284;52.748;13.452;2023-04-29T06:22:06;11.80;99.90
25332;DHT22;13284;52.748;13.452;2023-04-29T06:24:31;11.70;99.90
25332;DHT22;13284;52.748;13.452;2023-04-29T06:26:57;11.80;99.90
25332;DHT22;13284;52.748;13.452;2023-04-29T06:29:22;11.80;99.90
25332;DHT22;13284;52.748;13.452;2023-04-29T06:31:48;11.80;99.90
25332;DHT22;13284;52.748;13.452;2023-04-29T06:34:13;11.80;99.90
25332;DHT22;13284;52.748;13.452;2023-04-29T06:36:39;11.80;99.90
25332;DHT22;13284;52.748;13.452;2023-04-29T06:39:05;11.70;99.90
25332;DHT22;13284;52.748;13.452;2023-04-29T06:41:31;11.70;99.90
25332;DHT22;13284;52.748;13.452;2023-04-29T06:43:58;11.70;99.90
25332;DHT22;13284;52.748;13.452;2023-04-29T06:46:23;11.60;99.90
25332;DHT22;13284;52.748;13.452;2023-04-29T06:48:49;11.70;99.90
25332;DHT22;13284;52.748;13.452;2023-04-29T06:51:14;11.70;99.90
25332;DHT22;13284;52.748;13.452;2023-04-29T06:53:40;11.70;99.90
25332;DHT22;13284;52.748;13.452;2023-04-29T06:56:06;11.70;99.90
25332;DHT22;13284;52.748;13.452;2023-04-29T06:58:32;11.60;99.90
25332;DHT22;13284;52.748;13.452;2023-04-29T07:00:57;11.60;99.90
25332;DHT22;13284;52.748;13.452;2023-04-29T07:03:23;11.60;99.90
25332;DHT22;13284;52.748;13.452;2023-04-29T07:05:48;11.60;99.90
25332;DHT22;13284;52.748;13.452;2023-04-29T07:08:14;11.60;99.90
25332;DHT22;13284;52.748;13.452;2023-04-29T07:10:39;11.60;99.90
25332;DHT22;13284;52.748;13.452;2023-04-29T07:13:06;11.70;99.90
25332;DHT22;13284;52.748;13.452;2023-04-29T07:15:35;11.50;99.90
25332;DHT22;13284;52.748;13.452;2023-04-29T07:18:03;11.40;99.90
25332;DHT22;13284;52.748;13.452;2023-04-29T07:20:29;11.20;99.90
25332;DHT22;13284;52.748;13.452;2023-04-29T07:22:55;11.30;99.90
25332;DHT22;13284;52.748;13.452;2023-04-29T07:25:20;11.30;99.90
25332;DHT22;13284;52.748;13.452;2023-04-29T07:27:46;11.40;99.90
25332;DHT22;13284;52.748;13.452;2023-04-29T07:30:12;11.40;99.90
25332;DHT22;13284;52.748;13.452;2023-04-29T07:32:37;11.40;99.90
25332;DHT22;13284;52.748;13.452;2023-04-29T07:35:03;11.40;99.90
25332;DHT22;13284;52.748;13.452;2023-04-29T07:37:29;11.30;99.90
25332;DHT22;13284;52.748;13.452;2023-04-29T07:39:54;11.40;99.90
25332;DHT22;13284;52.748;13.452;2023-04-29T07:42:20;11.40;99.90
25332;DHT22;13284;52.748;13.452;2023-04-29T07:44:45;11.40;99.90
25332;DHT22;13284;52.748;13.452;2023-04-29T07:47:11;11.30;99.90
25332;DHT22;13284;52.748;13.452;2023-04-29T07:49:37;11.20;99.90
25332;DHT22;13284;52.748;13.452;2023-04-29T07:52:04;11.40;99.90
25332;DHT22;13284;52.748;13.452;2023-04-29T07:54:30;11.40;99.90
25332;DHT22;13284;52.748;13.452;2023-04-29T07:56:57;11.40;99.90
25332;DHT22;13284;52.748;13.452;2023-04-29T07:59:23;11.40;99.90
25332;DHT22;13284;52.748;13.452;2023-04-29T08:01:48;11.40;99.90
25332;DHT22;13284;52.748;13.452;2023-04-29T08:04:14;11.40;99.90
25332;DHT22;13284;52.748;13.452;2023-04-29T08:06:39;11.40;99.90
25332;DHT22;13284;52.748;13.452;2023-04-29T08:09:06;11.20;99.90
25332;DHT22;13284;52.748;13.452;2023-04-29T08:11:31;11.30;99.90
25332;DHT22;13284;52.748;13.452;2023-04-29T08:13:57;11.30;99.90
25332;DHT22;13284;52.748;13.452;2023-04-29T08:16:24;11.20;99.90
25332;DHT22;13284;52.748;13.452;2023-04-29T08:18:51;11.20;99.90
25332;DHT22;13284;52.748;13.452;2023-04-29T08:21:17;11.10;99.90
25332;DHT22;13284;52.748;13.452;2023-04-29T08:23:43;11.00;99.90
25332;DHT22;13284;52.748;13.452;2023-04-29T08:26:10;11.10;99.90
25332;DHT22;13284;52.748;13.452;2023-04-29T08:28:37;10.90;99.90
25332;DHT22;13284;52.748;13.452;2023-04-29T08:31:02;10.90;99.90
25332;DHT22;13284;52.748;13.452;2023-04-29T08:33:33;10.80;99.90
25332;DHT22;13284;52.748;13.452;2023-04-29T08:35:59;10.80;99.90
25332;DHT22;13284;52.748;13.452;2023-04-29T08:38:26;10.80;99.90
25332;DHT22;13284;52.748;13.452;2023-04-29T08:40:52;10.70;99.90
25332;DHT22;13284;52.748;13.452;2023-04-29T08:43:18;10.70;99.90
25332;DHT22;13284;52.748;13.452;2023-04-29T08:45:44;10.70;99.90
25332;DHT22;13284;52.748;13.452;2023-04-29T08:48:11;10.60;99.90
25332;DHT22;13284;52.748;13.452;2023-04-29T08:50:39;10.50;99.90
25332;DHT22;13284;52.748;13.452;2023-04-29T08:53:08;10.40;99.90
25332;DHT22;13284;52.748;13.452;2023-04-29T08:55:36;10.30;99.90
25332;DHT22;13284;52.748;13.452;2023-04-29T08:58:06;10.40;99.90
25332;DHT22;13284;52.748;13.452;2023-04-29T09:00:33;10.50;99.90
25332;DHT22;13284;52.748;13.452;2023-04-29T09:03:00;10.50;99.90
25332;DHT22;13284;52.748;13.452;2023-04-29T09:05:27;10.50;99.90
25332;DHT22;13284;52.748;13.452;2023-04-29T09:07:56;10.60;99.90
25332;DHT22;13284;52.748;13.452;2023-04-29T09:10:24;10.50;99.90
25332;DHT22;13284;52.748;13.452;2023-04-29T09:12:50;10.50;99.90
25332;DHT22;13284;52.748;13.452;2023-04-29T09:15:16;10.50;99.90
25332;DHT22;13284;52.748;13.452;2023-04-29T09:17:46;10.50;99.90
25332;DHT22;13284;52.748;13.452;2023-04-29T09:22:57;10.50;99.90
25332;DHT22;13284;52.748;13.452;2023-04-29T09:25:23;10.50;99.90
25332;DHT22;13284;52.748;13.452;2023-04-29T09:27:49;10.60;99.90
25332;DHT22;13284;52.748;13.452;2023-04-29T09:30:15;10.60;99.90
25332;DHT22;13284;52.748;13.452;2023-04-29T09:32:42;10.50;99.90
25332;DHT22;13284;52.748;13.452;2023-04-29T09:35:25;10.60;99.90
25332;DHT22;13284;52.748;13.452;2023-04-29T09:37:52;10.90;99.90
25332;DHT22;13284;52.748;13.452;2023-04-29T09:40:32;11.00;99.90
25332;DHT22;13284;52.748;13.452;2023-04-29T09:42:59;11.30;99.90
25332;DHT22;13284;52.748;13.452;2023-04-29T09:45:45;11.40;99.90
25332;DHT22;13284;52.748;13.452;2023-04-29T09:48:12;11.40;99.90
25332;DHT22;13284;52.748;13.452;2023-04-29T09:50:42;11.30;99.90
25332;DHT22;13284;52.748;13.452;2023-04-29T09:53:09;11.10;99.90
25332;DHT22;13284;52.748;13.452;2023-04-29T09:55:36;10.90;99.90
25332;DHT22;13284;52.748;13.452;2023-04-29T09:58:29;11.10;99.90
25332;DHT22;13284;52.748;13.452;2023-04-29T10:00:58;11.10;99.90
25332;DHT22;13284;52.748;13.452;2023-04-29T10:03:30;11.30;99.90
25332;DHT22;13284;52.748;13.452;2023-04-29T10:05:57;11.50;99.90
25332;DHT22;13284;52.748;13.452;2023-04-29T10:08:23;11.50;99.90
25332;DHT22;13284;52.748;13.452;2023-04-29T10:10:49;11.60;99.90
25332;DHT22;13284;52.748;13.452;2023-04-29T10:13:25;11.70;99.90
25332;DHT22;13284;52.748;13.452;2023-04-29T10:18:36;12.10;99.90
25332;DHT22;13284;52.748;13.452;2023-04-29T10:21:02;12.10;99.90
25332;DHT22;13284;52.748;13.452;2023-04-29T10:23:32;12.00;99.90
25332;DHT22;13284;52.748;13.452;2023-04-29T10:25:58;11.90;99.90
25332;DHT22;13284;52.748;13.452;2023-04-29T10:28:25;11.90;99.90
25332;DHT22;13284;52.748;13.452;2023-04-29T10:30:53;12.00;99.90
25332;DHT22;13284;52.748;13.452;2023-04-29T10:33:20;11.90;99.90
25332;DHT22;13284;52.748;13.452;2023-04-29T10:35:47;12.50;99.90
25332;DHT22;13284;52.748;13.452;2023-04-29T10:38:28;12.80;99.90
25332;DHT22;13284;52.748;13.452;2023-04-29T10:40:57;13.30;99.90
25332;DHT22;13284;52.748;13.452;2023-04-29T10:43:24;13.30;99.90
25332;DHT22;13284;52.748;13.452;2023-04-29T10:48:45;12.70;99.90
25332;DHT22;13284;52.748;13.452;2023-04-29T10:51:11;12.60;99.90
25332;DHT22;13284;52.748;13.452;2023-04-29T10:54:02;12.60;99.90
25332;DHT22;13284;52.748;13.452;2023-04-29T10:56:37;12.70;99.90
25332;DHT22;13284;52.748;13.452;2023-04-29T10:59:03;12.80;99.90
25332;DHT22;13284;52.748;13.452;2023-04-29T11:01:48;12.80;99.90
25332;DHT22;13284;52.748;13.452;2023-04-29T11:04:15;13.00;99.90
25332;DHT22;13284;52.748;13.452;2023-04-29T11:06:44;13.10;99.90
25332;DHT22;13284;52.748;13.452;2023-04-29T11:11:59;13.60;99.90
25332;DHT22;13284;52.748;13.452;2023-04-29T11:14:33;13.50;99.90
25332;DHT22;13284;52.748;13.452;2023-04-29T11:17:04;13.40;99.90
25332;DHT22;13284;52.748;13.452;2023-04-29T11:19:33;13.60;99.90
25332;DHT22;13284;52.748;13.452;2023-04-29T11:22:11;13.70;99.90
25332;DHT22;13284;52.748;13.452;2023-04-29T11:24:48;13.80;99.90
25332;DHT22;13284;52.748;13.452;2023-04-29T11:27:14;13.70;99.90
25332;DHT22;13284;52.748;13.452;2023-04-29T11:29:40;13.50;99.90
25332;DHT22;13284;52.748;13.452;2023-04-29T11:32:06;13.30;99.90
25332;DHT22;13284;52.748;13.452;2023-04-29T11:34:32;13.20;99.90
25332;DHT22;13284;52.748;13.452;2023-04-29T11:36:57;13.30;99.90
25332;DHT22;13284;52.748;13.452;2023-04-29T11:39:23;13.40;99.90
25332;DHT22;13284;52.748;13.452;2023-04-29T11:41:49;13.60;99.90
25332;DHT22;13284;52.748;13.452;2023-04-29T11:44:20;13.70;99.90
25332;DHT22;13284;52.748;13.452;2023-04-29T11:46:47;13.80;99.90
25332;DHT22;13284;52.748;13.452;2023-04-29T11:49:13;13.90;99.90
25332;DHT22;13284;52.748;13.452;2023-04-29T11:51:39;14.10;99.90
25332;DHT22;13284;52.748;13.452;2023-04-29T11:54:06;13.80;99.90
25332;DHT22;13284;52.748;13.452;2023-04-29T11:56:31;13.70;99.90
25332;DHT22;13284;52.748;13.452;2023-04-29T11:58:57;13.70;99.90
25332;DHT22;13284;52.748;13.452;2023-04-29T12:01:24;13.40;99.90
25332;DHT22;13284;52.748;13.452;2023-04-29T12:03:56;13.40;99.90
25332;DHT22;13284;52.748;13.452;2023-04-29T12:06:27;13.40;99.90
25332;DHT22;13284;52.748;13.452;2023-04-29T12:08:53;13.30;99.90
25332;DHT22;13284;52.748;13.452;2023-04-29T12:11:19;13.40;99.90
25332;DHT22;13284;52.748;13.452;2023-04-29T12:13:45;13.50;99.90
25332;DHT22;13284;52.748;13.452;2023-04-29T12:16:11;13.50;99.90
25332;DHT22;13284;52.748;13.452;2023-04-29T12:18:37;13.30;99.90
25332;DHT22;13284;52.748;13.452;2023-04-29T12:21:03;13.20;99.90
25332;DHT22;13284;52.748;13.452;2023-04-29T12:23:29;13.30;99.90
25332;DHT22;13284;52.748;13.452;2023-04-29T12:25:56;13.50;99.90
25332;DHT22;13284;52.748;13.452;2023-04-29T12:28:23;13.60;99.90
25332;DHT22;13284;52.748;13.452;2023-04-29T12:30:50;14.00;99.90
25332;DHT22;13284;52.748;13.452;2023-04-29T12:33:21;14.00;99.90
25332;DHT22;13284;52.748;13.452;2023-04-29T12:35:51;13.80;99.90
25332;DHT22;13284;52.748;13.452;2023-04-29T12:38:29;13.70;99.90
25332;DHT22;13284;52.748;13.452;2023-04-29T12:40:57;13.80;99.90
25332;DHT22;13284;52.748;13.452;2023-04-29T12:43:32;13.80;99.90
25332;DHT22;13284;52.748;13.452;2023-04-29T12:46:03;13.90;99.90
25332;DHT22;13284;52.748;13.452;2023-04-29T12:48:30;13.90;99.90
25332;DHT22;13284;52.748;13.452;2023-04-29T12:50:56;13.90;99.90
25332;DHT22;13284;52.748;13.452;2023-04-29T12:53:25;14.00;99.90
25332;DHT22;13284;52.748;13.452;2023-04-29T12:55:52;13.90;99.90
25332;DHT22;13284;52.748;13.452;2023-04-29T12:58:18;14.00;99.90
25332;DHT22;13284;52.748;13.452;2023-04-29T13:00:43;14.10;99.90
25332;DHT22;13284;52.748;13.452;2023-04-29T13:03:09;14.20;99.90
25332;DHT22;13284;52.748;13.452;2023-04-29T13:05:35;14.40;99.90
25332;DHT22;13284;52.748;13.452;2023-04-29T13:08:00;14.30;99.90
25332;DHT22;13284;52.748;13.452;2023-04-29T13:10:26;13.90;99.90
25332;DHT22;13284;52.748;13.452;2023-04-29T13:12:55;13.80;99.90
25332;DHT22;13284;52.748;13.452;2023-04-29T13:15:21;13.90;99.90
25332;DHT22;13284;52.748;13.452;2023-04-29T13:17:47;13.90;99.90
25332;DHT22;13284;52.748;13.452;2023-04-29T13:20:13;14.20;99.90
25332;DHT22;13284;52.748;13.452;2023-04-29T13:22:39;14.30;99.90
25332;DHT22;13284;52.748;13.452;2023-04-29T13:25:05;14.30;99.90
25332;DHT22;13284;52.748;13.452;2023-04-29T13:27:31;14.60;99.90
25332;DHT22;13284;52.748;13.452;2023-04-29T13:29:57;14.30;99.90
25332;DHT22;13284;52.748;13.452;2023-04-29T13:32:22;14.50;99.90
25332;DHT22;13284;52.748;13.452;2023-04-29T13:34:51;14.70;99.90
25332;DHT22;13284;52.748;13.452;2023-04-29T13:37:17;14.60;99.90
25332;DHT22;13284;52.748;13.452;2023-04-29T13:39:45;14.30;99.90
25332;DHT22;13284;52.748;13.452;2023-04-29T13:42:10;14.30;99.90
25332;DHT22;13284;52.748;13.452;2023-04-29T13:44:36;14.20;99.90
25332;DHT22;13284;52.748;13.452;2023-04-29T13:47:02;14.40;99.90
25332;DHT22;13284;52.748;13.452;2023-04-29T13:49:30;14.30;99.90
25332;DHT22;13284;52.748;13.452;2023-04-29T13:51:58;14.40;99.90
25332;DHT22;13284;52.748;13.452;2023-04-29T13:54:24;14.50;99.90
25332;DHT22;13284;52.748;13.452;2023-04-29T13:56:51;14.60;99.90
25332;DHT22;13284;52.748;13.452;2023-04-29T13:59:16;14.70;99.90
25332;DHT22;13284;52.748;13.452;2023-04-29T14:01:42;14.70;99.90
25332;DHT22;13284;52.748;13.452;2023-04-29T14:04:09;14.60;99.90
25332;DHT22;13284;52.748;13.452;2023-04-29T14:06:34;14.60;99.90
25332;DHT22;13284;52.748;13.452;2023-04-29T14:09:00;14.90;99.90
25332;DHT22;13284;52.748;13.452;2023-04-29T14:11:29;14.70;99.90
25332;DHT22;13284;52.748;13.452;2023-04-29T14:13:54;15.00;99.90
25332;DHT22;13284;52.748;13.452;2023-04-29T14:16:20;15.30;99.90
25332;DHT22;13284;52.748;13.452;2023-04-29T14:18:45;15.30;99.90
25332;DHT22;13284;52.748;13.452;2023-04-29T14:21:11;15.50;99.90
25332;DHT22;13284;52.748;13.452;2023-04-29T14:23:37;15.50;99.90
25332;DHT22;13284;52.748;13.452;2023-04-29T14:26:02;15.60;99.90
25332;DHT22;13284;52.748;13.452;2023-04-29T14:28:28;16.20;99.90
25332;DHT22;13284;52.748;13.452;2023-04-29T14:30:55;16.20;99.90
25332;DHT22;13284;52.748;13.452;2023-04-29T14:33:21;16.30;99.90
25332;DHT22;13284;52.748;13.452;2023-04-29T14:35:47;16.00;99.90
25332;DHT22;13284;52.748;13.452;2023-04-29T14:38:13;16.20;99.90
25332;DHT22;13284;52.748;13.452;2023-04-29T14:40:38;16.20;99.90
25332;DHT22;13284;52.748;13.452;2023-04-29T14:43:04;16.00;99.90
25332;DHT22;13284;52.748;13.452;2023-04-29T14:45:30;16.10;99.90
25332;DHT22;13284;52.748;13.452;2023-04-29T14:47:56;16.20;99.90
25332;DHT22;13284;52.748;13.452;2023-04-29T14:50:22;16.00;99.90
25332;DHT22;13284;52.748;13.452;2023-04-29T14:52:49;15.90;99.90
25332;DHT22;13284;52.748;13.452;2023-04-29T14:55:15;15.70;99.90
25332;DHT22;13284;52.748;13.452;2023-04-29T14:57:41;15.70;99.90
25332;DHT22;13284;52.748;13.452;2023-04-29T15:00:07;15.50;99.90
25332;DHT22;13284;52.748;13.452;2023-04-29T15:02:32;15.50;99.90
25332;DHT22;13284;52.748;13.452;2023-04-29T15:04:58;15.50;99.90
25332;DHT22;13284;52.748;13.452;2023-04-29T15:07:24;15.50;99.90
25332;DHT22;13284;52.748;13.452;2023-04-29T15:09:49;15.70;99.90
25332;DHT22;13284;52.748;13.452;2023-04-29T15:12:15;15.60;99.90
25332;DHT22;13284;52.748;13.452;2023-04-29T15:14:42;15.50;99.90
25332;DHT22;13284;52.748;13.452;2023-04-29T15:17:07;15.30;99.90
25332;DHT22;13284;52.748;13.452;2023-04-29T15:19:33;15.20;99.90
25332;DHT22;13284;52.748;13.452;2023-04-29T15:21:59;15.10;99.90
25332;DHT22;13284;52.748;13.452;2023-04-29T15:24:25;15.20;99.90
25332;DHT22;13284;52.748;13.452;2023-04-29T15:26:52;15.10;99.90
25332;DHT22;13284;52.748;13.452;2023-04-29T15:29:17;15.30;99.90